Mykolayiv, Ukraine
Current Conditions -  °F | °C
As of 7:00 PM on Wednesday 26 Nov 2014 (Local Time) from UKON Reporting Station
Light Snow Light Snow  
Wind Chill: 20°   Ceiling: 900
Heat Index: 28°   Visibility: 2.2mi
Dew Point: 27°   Wind: 9mph
Humidity: 93%   Direction: 40°NE
Pressure: 30.27"   Gusts: NA
Location:  46.97°N, 32°E
Report Text: UKON 261600Z 04004MPS 3600 -SG BR OVC009 M02/M03 Q1025 NOSIG
Loading
Personal Weather Stations






























Interactive Weather Map New forecast layout! Learn more

10-Day Weather Forecast

Advertisements
Track Severe Weather on mobile